Time;durP1;ratioP1;P1;durP2;ratioP2;P2;SDS_P1;SDS_P2;PMS_P1;PMS_P2;Temp;Humidity;BMP_temperature;BMP_pressure;BME280_temperature;BME280_humidity;BME280_pressure;Samples;Min_cycle;Max_cycle;Signal;HPM_P1;HPM_P2
2023/06/14 00:00:36;;;;;;;17.88;10.80;;;;;;;23.80;49.46;98463.50;4939081;29;20031;-72
2023/06/14 00:03:03;;;;;;;12.50;9.80;;;;;;;23.81;49.57;98461.66;4939005;29;20106;-72
2023/06/14 00:05:30;;;;;;;15.63;10.95;;;;;;;23.77;49.73;98457.78;4938887;29;20050;-71
2023/06/14 00:07:55;;;;;;;14.68;11.38;;;;;;;23.78;49.76;98465.59;4954429;28;20038;-72
2023/06/14 00:10:21;;;;;;;18.15;12.30;;;;;;;23.77;49.88;98453.28;4938557;29;20035;-71
2023/06/14 00:12:46;;;;;;;18.38;13.98;;;;;;;23.77;49.75;98458.59;4938775;29;20047;-72
2023/06/14 00:15:12;;;;;;;23.42;14.52;;;;;;;23.74;49.91;98443.03;4955599;28;20484;-72
2023/06/14 00:17:38;;;;;;;17.63;14.73;;;;;;;23.72;49.93;98445.09;4938591;29;20048;-72
2023/06/14 00:20:07;;;;;;;19.00;14.63;;;;;;;23.70;49.95;98441.00;4938565;29;20035;-72
2023/06/14 00:22:33;;;;;;;18.95;14.50;;;;;;;23.69;50.29;98431.34;4938772;29;20097;-72
2023/06/14 00:24:59;;;;;;;17.42;13.32;;;;;;;23.66;50.23;98441.41;4923047;29;20418;-72
2023/06/14 00:27:25;;;;;;;18.70;12.95;;;;;;;23.62;50.21;98437.50;4938446;29;20035;-72
2023/06/14 00:29:51;;;;;;;17.55;12.15;;;;;;;23.59;50.26;98437.94;4938385;29;20031;-72
2023/06/14 00:32:18;;;;;;;14.00;11.00;;;;;;;23.58;50.51;98441.63;4954045;29;20403;-72
2023/06/14 00:34:43;;;;;;;15.63;10.65;;;;;;;23.58;50.40;98433.66;4922332;29;20072;-72
2023/06/14 00:37:09;;;;;;;13.00;10.20;;;;;;;23.56;50.65;98430.38;4954225;28;20039;-72
2023/06/14 00:39:34;;;;;;;14.05;11.20;;;;;;;23.57;50.34;98432.00;4953995;29;20137;-72
2023/06/14 00:42:00;;;;;;;18.58;11.65;;;;;;;23.57;50.31;98425.88;4954158;28;20046;-72
2023/06/14 00:44:25;;;;;;;13.85;10.98;;;;;;;23.58;50.35;98424.84;4955112;28;20038;-72
2023/06/14 00:46:51;;;;;;;15.07;11.10;;;;;;;23.55;50.18;98423.41;4954996;28;20031;-72
2023/06/14 00:49:17;;;;;;;15.50;10.60;;;;;;;23.57;50.10;98425.88;4938057;29;20043;-72
2023/06/14 00:51:43;;;;;;;13.85;10.45;;;;;;;23.53;50.25;98414.81;4937865;29;20034;-72
2023/06/14 00:54:08;;;;;;;13.55;10.45;;;;;;;23.55;50.32;98414.59;4954804;28;20419;-72
2023/06/14 00:56:36;;;;;;;15.98;10.45;;;;;;;23.55;50.30;98418.06;4954845;28;20501;-72
2023/06/14 00:59:01;;;;;;;12.50;9.93;;;;;;;23.56;50.17;98424.22;4953968;29;20059;-72
2023/06/14 01:01:28;;;;;;;12.20;9.45;;;;;;;23.51;50.42;98411.50;4938168;29;20492;-72
2023/06/14 01:03:54;;;;;;;14.35;8.73;;;;;;;23.51;50.26;98408.03;4937822;29;20054;-72
2023/06/14 01:06:42;;;;;;;10.82;7.90;;;;;;;23.55;50.39;98410.09;4953489;28;20035;-72
2023/06/14 01:09:29;;;;;;;10.05;7.70;;;;;;;23.51;50.08;98414.19;4953532;29;20036;-72
2023/06/14 01:12:01;;;;;;;10.25;6.82;;;;;;;23.52;50.24;98412.34;4937881;29;20035;-72
2023/06/14 01:14:26;;;;;;;10.48;6.63;;;;;;;23.52;50.32;98413.16;4937771;29;20047;-72
2023/06/14 01:16:53;;;;;;;9.55;5.85;;;;;;;23.48;50.19;98410.09;4937480;29;20051;-72
2023/06/14 01:19:18;;;;;;;8.35;5.63;;;;;;;23.47;50.27;98410.31;4937696;29;20035;-72
2023/06/14 01:21:44;;;;;;;7.82;5.55;;;;;;;23.44;50.36;98408.88;4921374;29;20423;-72
2023/06/14 01:24:10;;;;;;;12.23;5.30;;;;;;;23.47;50.42;98420.97;4937637;29;20077;-72
2023/06/14 01:26:37;;;;;;;7.30;4.95;;;;;;;23.41;50.37;98411.16;4937474;29;20042;-72
2023/06/14 01:29:03;;;;;;;7.22;4.32;;;;;;;23.42;50.52;98413.59;4937343;29;20031;-72
2023/06/14 01:31:29;;;;;;;5.95;4.25;;;;;;;23.41;50.37;98405.81;4937251;28;20082;-72
2023/06/14 01:33:55;;;;;;;6.60;4.57;;;;;;;23.38;50.54;98406.22;4937721;29;20482;-72
2023/06/14 01:36:20;;;;;;;7.13;4.20;;;;;;;23.37;50.47;98400.09;4937745;28;20071;-72
2023/06/14 01:38:46;;;;;;;4.93;3.72;;;;;;;23.34;50.34;98410.31;4936991;29;20085;-72
2023/06/14 01:41:12;;;;;;;7.32;3.65;;;;;;;23.34;50.70;98416.50;4921316;29;20035;-72
2023/06/14 01:43:37;;;;;;;6.15;3.45;;;;;;;23.29;50.69;98403.78;4921236;29;20094;-73
2023/06/14 01:46:03;;;;;;;7.15;3.50;;;;;;;23.32;50.62;98415.06;4937194;29;20439;-72
2023/06/14 01:48:28;;;;;;;4.55;3.45;;;;;;;23.30;50.83;98409.94;4953930;28;20035;-72
2023/06/14 01:50:54;;;;;;;6.05;3.13;;;;;;;23.27;50.61;98407.69;4942472;28;20063;-72
2023/06/14 01:53:20;;;;;;;4.35;3.10;;;;;;;23.28;50.68;98402.16;4943482;29;20055;-72
2023/06/14 01:55:48;;;;;;;3.72;2.80;;;;;;;23.28;50.67;98407.47;4960574;28;20507;-72
2023/06/14 01:58:15;;;;;;;6.40;2.95;;;;;;;23.22;51.07;98400.31;4943662;28;20042;-72
2023/06/14 02:00:43;;;;;;;3.60;2.60;;;;;;;23.25;50.84;98404.41;4959070;28;20074;-72
2023/06/14 02:03:08;;;;;;;4.90;2.67;;;;;;;23.22;51.12;98402.97;4943577;29;20050;-72
2023/06/14 02:05:34;;;;;;;3.58;2.60;;;;;;;23.24;51.01;98405.44;4959249;28;20031;-72
2023/06/14 02:08:00;;;;;;;3.60;2.53;;;;;;;23.23;51.07;98404.63;4960501;28;20066;-72
2023/06/14 02:10:26;;;;;;;3.63;2.22;;;;;;;23.23;51.04;98409.09;4959421;28;20047;-72
2023/06/14 02:12:51;;;;;;;3.22;2.20;;;;;;;23.18;50.86;98398.25;4960331;28;20035;-72
2023/06/14 02:15:19;;;;;;;5.15;2.10;;;;;;;23.14;50.99;98391.72;4942970;29;20079;-72
2023/06/14 02:17:46;;;;;;;4.63;2.33;;;;;;;23.11;51.18;98396.44;4943702;29;20035;-72
2023/06/14 02:20:12;;;;;;;4.72;2.20;;;;;;;23.10;51.10;98409.94;4943893;29;20093;-72
2023/06/14 02:22:38;;;;;;;5.13;2.25;;;;;;;23.06;51.21;98406.84;4959366;29;20039;-72
2023/06/14 02:25:03;;;;;;;4.38;2.30;;;;;;;23.04;51.28;98408.91;4960250;28;20027;-72
2023/06/14 02:27:29;;;;;;;8.20;2.35;;;;;;;22.98;51.22;98401.75;4958983;28;20042;-72
2023/06/14 02:29:54;;;;;;;3.55;2.10;;;;;;;22.98;51.52;98408.88;4943231;29;20046;-72
2023/06/14 02:32:20;;;;;;;3.72;1.90;;;;;;;22.99;51.40;98415.84;4960397;28;20039;-71
2023/06/14 02:34:49;;;;;;;5.15;2.38;;;;;;;22.96;51.36;98414.41;4960215;28;20035;-72
2023/06/14 02:37:16;;;;;;;6.70;2.35;;;;;;;22.93;51.49;98420.19;4943657;29;20462;-72
2023/06/14 02:39:42;;;;;;;4.72;2.15;;;;;;;22.89;51.54;98409.09;4958748;29;20081;-74
2023/06/14 02:42:07;;;;;;;3.60;2.00;;;;;;;22.90;51.33;98415.25;4926980;29;20043;-74
2023/06/14 02:44:33;;;;;;;3.38;2.10;;;;;;;22.89;51.37;98419.75;4959819;28;20038;-75
2023/06/14 02:47:00;;;;;;;4.03;2.00;;;;;;;22.87;51.21;98419.13;4958929;28;20043;-83
2023/06/14 02:49:26;;;;;;;3.05;2.00;;;;;;;22.87;51.06;98418.34;4943227;29;20035;-76
2023/06/14 02:51:51;;;;;;;3.92;1.80;;;;;;;22.85;51.24;98420.34;4958611;28;20047;-75
2023/06/14 02:54:17;;;;;;;2.42;2.00;;;;;;;22.81;51.16;98411.16;4957014;28;20074;-75
2023/06/14 02:56:42;;;;;;;2.85;1.52;;;;;;;22.87;51.10;98416.47;4926413;29;20126;-76
2023/06/14 02:59:09;;;;;;;2.05;1.60;;;;;;;22.98;50.93;98419.53;4942205;29;20407;-76
2023/06/14 03:01:34;;;;;;;3.85;1.70;;;;;;;23.22;50.30;98421.63;4955187;28;20031;-76
2023/06/14 03:04:03;;;;;;;2.20;1.42;;;;;;;23.59;49.44;98429.13;4939336;29;20074;-76
2023/06/14 03:06:33;;;;;;;4.18;1.35;;;;;;;23.87;48.62;98422.72;4955762;29;20027;-76
2023/06/14 03:09:04;;;;;;;5.95;1.70;;;;;;;24.18;47.69;98424.66;4956709;28;20031;-76
2023/06/14 03:11:32;;;;;;;2.38;1.70;;;;;;;24.47;46.99;98425.09;4925297;28;20086;-76
2023/06/14 03:13:57;;;;;;;2.80;1.63;;;;;;;24.81;46.08;98429.22;4940222;29;20114;-76
2023/06/14 03:16:24;;;;;;;4.90;1.77;;;;;;;25.15;45.33;98424.41;4955586;29;20469;-76
2023/06/14 03:18:52;;;;;;;4.28;1.58;;;;;;;25.46;44.25;98422.72;4940117;29;20035;-76
2023/06/14 03:21:21;;;;;;;6.22;1.55;;;;;;;25.87;43.28;98433.78;4939614;29;20027;-76
2023/06/14 03:23:47;;;;;;;3.88;1.67;;;;;;;26.23;42.54;98440.97;4954821;28;20487;-74
2023/06/14 03:26:14;;;;;;;5.93;1.70;;;;;;;26.60;41.52;98437.38;4955246;28;20033;-79
2023/06/14 03:28:46;;;;;;;3.07;1.30;;;;;;;27.03;40.90;98447.88;4955416;29;20035;-79
2023/06/14 03:31:12;;;;;;;5.07;1.40;;;;;;;27.43;39.83;98439.19;4955294;28;20043;-79
2023/06/14 03:33:39;;;;;;;3.95;1.45;;;;;;;27.92;39.55;98443.44;4955392;29;20050;-76
2023/06/14 03:36:04;;;;;;;3.38;1.25;;;;;;;28.55;39.26;98438.22;4955450;28;20039;-72
2023/06/14 03:38:30;;;;;;;4.00;1.50;;;;;;;29.12;38.54;98442.69;4956079;28;20039;-72
2023/06/14 03:40:55;;;;;;;5.50;1.88;;;;;;;29.62;37.24;98446.38;4955170;28;20027;-76
2023/06/14 03:43:21;;;;;;;6.95;1.50;;;;;;;30.11;35.89;98443.78;4939127;29;20031;-79
2023/06/14 03:45:46;;;;;;;5.50;1.30;;;;;;;30.43;34.78;98443.88;4955152;29;20118;-76
2023/06/14 03:48:12;;;;;;;4.82;1.45;;;;;;;30.00;35.29;98444.72;4956187;28;20027;-77
2023/06/14 03:50:42;;;;;;;7.45;1.50;;;;;;;29.23;36.62;98447.97;4956012;28;20043;-74
2023/06/14 03:53:07;;;;;;;4.82;1.50;;;;;;;28.68;37.16;98448.66;4956684;28;20031;-74
2023/06/14 03:55:33;;;;;;;4.70;1.38;;;;;;;28.27;38.03;98439.84;4956170;28;20577;-79
2023/06/14 03:57:59;;;;;;;3.63;1.60;;;;;;;27.91;38.92;98450.66;4954799;28;20075;-71
2023/06/14 04:00:24;;;;;;;3.55;1.58;;;;;;;27.71;39.12;98443.00;4954670;29;20414;-71
2023/06/14 04:02:50;;;;;;;7.18;1.55;;;;;;;27.52;39.65;98445.00;4954596;29;20031;-72
2023/06/14 04:05:16;;;;;;;4.85;1.60;;;;;;;27.25;40.12;98447.31;4955812;28;20043;-72
2023/06/14 04:07:44;;;;;;;6.05;1.63;;;;;;;27.40;39.87;98454.91;4938527;29;20180;-74
2023/06/14 04:10:13;;;;;;;2.33;1.25;;;;;;;28.05;39.14;98455.78;4954601;29;20027;-72
2023/06/14 04:12:39;;;;;;;4.00;1.50;;;;;;;28.34;38.39;98437.84;4955332;28;20027;-72
2023/06/14 04:15:06;;;;;;;2.75;1.42;;;;;;;28.15;38.77;98445.28;4954397;29;20023;-72
2023/06/14 04:17:32;;;;;;;2.63;1.40;;;;;;;27.88;39.47;98453.00;4955677;28;20030;-72
2023/06/14 04:19:59;;;;;;;3.58;1.40;;;;;;;28.74;38.15;98452.28;4938585;29;20061;-72
2023/06/14 04:22:28;;;;;;;3.17;1.67;;;;;;;30.11;35.60;98458.06;4954420;29;20462;-72
2023/06/14 04:24:56;;;;;;;2.92;1.58;;;;;;;31.18;33.65;98453.97;4954412;29;20035;-72
2023/06/14 04:27:25;;;;;;;5.82;1.60;;;;;;;32.10;31.86;98457.25;4954274;29;20066;-72
2023/06/14 04:29:56;;;;;;;3.20;1.65;;;;;;;32.96;30.67;98452.25;4954185;29;20094;-72
2023/06/14 04:32:29;;;;;;;3.58;1.52;;;;;;;33.82;29.13;98465.13;4955403;28;20043;-72
2023/06/14 04:34:58;;;;;;;3.40;1.50;;;;;;;34.55;27.86;98463.72;4954127;28;20569;-72
2023/06/14 04:37:24;;;;;;;4.95;1.45;;;;;;;35.31;27.00;98469.66;4953851;29;20035;-72
2023/06/14 04:39:51;;;;;;;7.10;1.50;;;;;;;35.97;26.09;98468.13;4955497;28;20395;-72
2023/06/14 04:42:20;;;;;;;10.85;1.70;;;;;;;36.61;25.63;98475.16;4953971;29;20035;-72
2023/06/14 04:44:47;;;;;;;2.42;1.30;;;;;;;36.60;25.80;98479.00;4953879;28;20039;-72
2023/06/14 04:47:14;;;;;;;5.32;1.55;;;;;;;36.88;25.04;98479.94;4953420;28;20039;-72
2023/06/14 04:49:40;;;;;;;9.25;1.67;;;;;;;35.75;26.44;98478.69;4954897;28;20483;-72
2023/06/14 04:52:06;;;;;;;6.53;1.60;;;;;;;34.92;27.31;98481.38;4955058;28;20376;-72
2023/06/14 04:54:33;;;;;;;3.88;1.83;;;;;;;34.39;27.73;98480.06;4954622;28;20051;-72
2023/06/14 04:56:59;;;;;;;8.80;1.88;;;;;;;33.89;28.34;98487.31;4955028;28;20042;-72
2023/06/14 04:59:24;;;;;;;8.63;1.60;;;;;;;33.54;28.51;98492.53;4953532;28;20043;-72
2023/06/14 05:01:51;;;;;;;6.50;1.52;;;;;;;33.17;28.75;98487.41;4954746;28;20031;-72
2023/06/14 05:04:17;;;;;;;2.92;1.70;;;;;;;32.71;29.79;98492.78;4937752;29;20134;-72
2023/06/14 05:06:47;;;;;;;7.07;1.55;;;;;;;32.28;30.05;98493.75;4953424;28;20391;-72
2023/06/14 05:09:14;;;;;;;8.70;1.75;;;;;;;31.98;30.45;98494.41;4938109;29;20031;-73
2023/06/14 05:11:39;;;;;;;12.05;2.00;;;;;;;31.67;30.75;98496.13;4954730;28;20467;-73
2023/06/14 05:14:06;;;;;;;7.65;1.70;;;;;;;31.35;31.32;98502.38;4953230;28;20027;-73
2023/06/14 05:16:31;;;;;;;5.18;1.42;;;;;;;31.18;31.65;98497.13;4954478;28;20081;-73
2023/06/14 05:18:57;;;;;;;4.35;1.67;;;;;;;31.38;31.28;98505.34;4953228;29;20043;-72
2023/06/14 05:21:23;;;;;;;4.20;1.92;;;;;;;31.56;31.24;98506.03;4953304;29;20031;-73
2023/06/14 05:23:48;;;;;;;8.77;1.50;;;;;;;31.51;31.05;98509.50;4954248;28;20113;-73
2023/06/14 05:26:14;;;;;;;5.22;1.85;;;;;;;31.42;31.51;98519.13;4952678;29;20043;-73
2023/06/14 05:28:40;;;;;;;8.35;1.98;;;;;;;31.31;31.17;98520.97;4954173;28;20042;-72
2023/06/14 05:31:05;;;;;;;10.02;1.67;;;;;;;31.15;31.31;98511.09;4954385;28;20035;-74
2023/06/14 05:33:31;;;;;;;3.97;1.55;;;;;;;31.01;31.19;98522.34;4953095;28;20090;-73
2023/06/14 05:35:56;;;;;;;10.90;1.60;;;;;;;30.88;31.28;98524.59;4954045;28;20031;-73
2023/06/14 05:38:22;;;;;;;8.15;1.83;;;;;;;30.82;30.81;98532.63;4954154;28;20027;-73
2023/06/14 05:40:47;;;;;;;8.50;1.77;;;;;;;30.83;31.17;98531.53;4952834;29;20050;-73
2023/06/14 05:43:13;;;;;;;10.98;1.83;;;;;;;31.01;30.80;98540.38;4953894;28;20035;-72
2023/06/14 05:45:38;;;;;;;7.40;2.35;;;;;;;31.25;30.62;98540.88;4954189;28;20031;-74
2023/06/14 05:48:04;;;;;;;7.30;2.05;;;;;;;31.53;30.87;98539.75;4952740;29;20043;-73
2023/06/14 05:50:30;;;;;;;9.45;2.35;;;;;;;31.36;31.08;98544.47;4952770;29;20027;-72
2023/06/14 05:52:55;;;;;;;4.97;2.50;;;;;;;31.18;31.58;98535.66;4936874;29;20475;-72
2023/06/14 05:55:21;;;;;;;9.30;2.65;;;;;;;31.16;32.02;98537.81;4952794;29;20059;-73
2023/06/14 05:57:47;;;;;;;8.10;2.65;;;;;;;31.82;31.22;98554.75;4953974;28;20066;-73
2023/06/14 06:00:17;;;;;;;7.72;2.47;;;;;;;32.38;30.43;98546.97;4954413;28;20039;-71
2023/06/14 06:02:43;;;;;;;9.32;3.22;;;;;;;34.20;27.78;98549.47;4921815;29;20444;-72
2023/06/14 06:05:12;;;;;;;10.00;3.10;;;;;;;35.51;25.58;98553.56;4952752;29;20114;-73
2023/06/14 06:07:39;;;;;;;14.23;3.08;;;;;;;35.53;25.49;98555.22;4937031;29;20035;-75
2023/06/14 06:10:05;;;;;;;9.82;2.97;;;;;;;36.12;24.70;98554.06;4953004;29;20050;-75
2023/06/14 06:12:32;;;;;;;8.90;3.40;;;;;;;35.69;25.25;98552.06;4952859;28;20494;-74
2023/06/14 06:14:58;;;;;;;7.95;2.97;;;;;;;35.21;25.71;98548.41;4952791;29;20031;-75
2023/06/14 06:17:24;;;;;;;9.52;3.35;;;;;;;34.86;26.15;98548.38;4937142;29;20039;-74
2023/06/14 06:19:50;;;;;;;6.73;3.03;;;;;;;34.53;27.07;98556.13;4953950;28;20482;-74
2023/06/14 06:22:15;;;;;;;9.80;3.70;;;;;;;34.22;27.33;98548.13;4936649;29;20027;-74
2023/06/14 06:24:41;;;;;;;9.98;4.03;;;;;;;34.00;27.38;98555.75;4952457;29;20110;-73
2023/06/14 06:27:08;;;;;;;10.88;3.45;;;;;;;33.88;27.45;98556.88;4952423;28;20081;-74
2023/06/14 06:29:34;;;;;;;8.05;3.47;;;;;;;33.96;27.38;98552.00;4954080;28;20042;-75
2023/06/14 06:32:00;;;;;;;13.17;3.47;;;;;;;33.83;27.89;98553.41;4953541;28;20398;-74
2023/06/14 06:34:25;;;;;;;16.30;3.65;;;;;;;33.79;28.24;98555.81;4952499;28;20046;-74
2023/06/14 06:36:51;;;;;;;8.75;3.65;;;;;;;33.99;27.32;98554.97;4955067;28;20047;-73
2023/06/14 06:39:16;;;;;;;13.68;3.85;;;;;;;34.34;26.59;98555.94;4956082;29;20103;-74
2023/06/14 06:41:42;;;;;;;9.95;3.55;;;;;;;35.94;24.66;98554.81;4957293;29;20031;-73
2023/06/14 06:44:08;;;;;;;10.73;3.20;;;;;;;36.68;23.41;98554.47;4940142;29;20035;-74
2023/06/14 06:46:34;;;;;;;5.55;2.90;;;;;;;37.38;22.95;98556.41;4955983;28;20027;-74
2023/06/14 06:49:00;;;;;;;7.15;2.65;;;;;;;37.72;22.31;98560.75;4940237;29;20105;-73
2023/06/14 06:51:25;;;;;;;7.18;2.03;;;;;;;37.34;22.29;98558.13;4956101;28;20547;-74
2023/06/14 06:53:54;;;;;;;5.57;2.28;;;;;;;36.85;23.03;98554.78;4957300;28;20061;-75
2023/06/14 06:56:21;;;;;;;6.90;2.60;;;;;;;36.74;23.09;98562.28;4939912;29;20419;-76
2023/06/14 06:58:47;;;;;;;4.75;2.63;;;;;;;36.44;23.69;98557.25;4940172;29;20035;-76
2023/06/14 07:01:13;;;;;;;6.45;2.80;;;;;;;35.91;23.81;98560.81;4940257;29;20046;-75
2023/06/14 07:03:38;;;;;;;6.82;2.67;;;;;;;35.62;24.47;98558.94;4957121;28;20042;-75
2023/06/14 07:06:04;;;;;;;5.53;2.60;;;;;;;35.53;24.61;98556.00;4939736;29;20031;-77
2023/06/14 07:08:29;;;;;;;5.90;2.97;;;;;;;35.48;24.66;98556.84;4939780;29;20031;-74
2023/06/14 07:10:55;;;;;;;8.15;2.88;;;;;;;36.01;23.95;98549.88;4939762;29;20458;-73
2023/06/14 07:13:20;;;;;;;8.63;3.47;;;;;;;36.29;23.41;98561.75;4956117;29;20036;-73
2023/06/14 07:15:46;;;;;;;6.82;3.40;;;;;;;36.68;23.26;98562.63;4955652;29;20034;-73
2023/06/14 07:18:12;;;;;;;8.02;3.20;;;;;;;36.15;23.36;98564.38;4924060;29;20031;-73
2023/06/14 07:20:38;;;;;;;10.50;3.00;;;;;;;36.14;23.50;98562.72;4956396;28;20493;-73
2023/06/14 07:23:03;;;;;;;4.78;2.70;;;;;;;36.49;23.13;98559.91;4956688;28;20039;-74
2023/06/14 07:25:29;;;;;;;8.80;2.80;;;;;;;36.16;23.86;98560.53;4955244;28;20039;-73
2023/06/14 07:27:54;;;;;;;8.00;2.80;;;;;;;35.87;23.89;98560.59;4955578;29;20034;-73
2023/06/14 07:30:20;;;;;;;6.15;2.63;;;;;;;35.45;24.00;98562.06;4955414;29;20031;-74
2023/06/14 07:32:46;;;;;;;10.48;2.80;;;;;;;35.17;24.97;98545.47;4956347;28;20105;-74
2023/06/14 07:35:11;;;;;;;5.13;2.40;;;;;;;35.15;24.76;98555.75;4956342;28;20063;-73
2023/06/14 07:37:37;;;;;;;5.45;2.30;;;;;;;35.00;25.13;98547.72;4956342;28;20027;-72
2023/06/14 07:40:06;;;;;;;7.35;2.47;;;;;;;34.88;25.47;98548.09;4955080;29;20081;-73
2023/06/14 07:42:34;;;;;;;5.22;1.95;;;;;;;34.73;25.90;98555.22;4955252;29;20033;-73
2023/06/14 07:45:00;;;;;;;9.45;2.50;;;;;;;35.09;25.19;98556.88;4955106;29;20036;-73
2023/06/14 07:47:26;;;;;;;8.75;2.15;;;;;;;34.87;25.57;98546.47;4954432;28;20395;-72
2023/06/14 07:49:51;;;;;;;4.53;2.20;;;;;;;34.66;25.96;98549.28;4954953;28;20483;-73
2023/06/14 07:52:17;;;;;;;11.57;2.20;;;;;;;34.59;26.46;98546.88;4955061;28;20051;-73
2023/06/14 07:54:43;;;;;;;3.65;2.13;;;;;;;34.41;26.36;98548.34;4954552;29;20422;-73
2023/06/14 07:57:08;;;;;;;7.72;2.17;;;;;;;34.34;26.04;98553.25;4954903;29;20028;-74
2023/06/14 07:59:34;;;;;;;9.38;2.40;;;;;;;34.11;26.15;98551.97;4954932;29;20035;-74
2023/06/14 08:01:59;;;;;;;3.55;1.90;;;;;;;34.22;26.23;98550.84;4954833;29;20031;-75
2023/06/14 08:04:25;;;;;;;3.58;1.80;;;;;;;34.34;26.18;98553.25;4938783;29;20046;-73
2023/06/14 08:06:50;;;;;;;5.07;2.10;;;;;;;34.14;26.41;98545.16;4954518;29;20043;-73
2023/06/14 08:09:16;;;;;;;3.88;1.90;;;;;;;33.96;26.41;98557.41;4955818;28;20245;-75
2023/06/14 08:11:41;;;;;;;12.63;2.10;;;;;;;33.80;26.92;98553.94;4939042;29;20038;-74
2023/06/14 08:14:07;;;;;;;7.43;2.30;;;;;;;33.65;27.15;98560.16;4954566;28;20043;-74
2023/06/14 08:16:33;;;;;;;11.88;2.15;;;;;;;33.56;26.99;98559.06;4938838;29;20039;-73
2023/06/14 08:18:58;;;;;;;3.80;2.33;;;;;;;33.43;27.16;98563.97;4938508;29;20050;-73
2023/06/14 08:21:28;;;;;;;10.35;2.15;;;;;;;33.52;27.38;98561.50;4954141;29;20463;-74
2023/06/14 08:23:54;;;;;;;5.32;2.20;;;;;;;33.52;27.43;98559.63;4938804;29;20043;-74
2023/06/14 08:26:20;;;;;;;5.68;2.10;;;;;;;33.44;27.92;98568.28;4954559;29;20027;-74
2023/06/14 08:28:46;;;;;;;5.68;2.13;;;;;;;33.33;28.21;98572.88;4938679;29;20086;-72
2023/06/14 08:31:12;;;;;;;6.82;2.33;;;;;;;33.22;28.21;98557.72;4954176;29;20031;-73
2023/06/14 08:33:38;;;;;;;4.82;2.08;;;;;;;33.15;28.14;98563.38;4938357;29;20056;-73
2023/06/14 08:36:04;;;;;;;4.32;2.03;;;;;;;33.13;28.55;98568.25;4938339;29;20480;-73
2023/06/14 08:38:30;;;;;;;4.75;2.03;;;;;;;33.15;28.20;98557.97;4953745;28;20121;-73
2023/06/14 08:40:57;;;;;;;7.10;2.03;;;;;;;33.15;27.98;98562.59;4953910;29;20376;-76
2023/06/14 08:43:22;;;;;;;7.95;2.15;;;;;;;33.05;27.83;98559.84;4938571;29;20522;-74
2023/06/14 08:45:49;;;;;;;4.70;2.30;;;;;;;33.01;28.12;98554.19;4922340;29;20039;-73
2023/06/14 08:48:17;;;;;;;5.45;2.05;;;;;;;33.06;28.26;98558.78;4938088;29;20034;-71
2023/06/14 08:50:42;;;;;;;9.77;2.13;;;;;;;32.94;28.58;98550.91;4938718;29;20404;-74
2023/06/14 08:53:09;;;;;;;8.23;2.20;;;;;;;32.85;28.49;98560.66;4938012;29;20027;-73
2023/06/14 08:55:38;;;;;;;5.37;2.03;;;;;;;33.11;28.56;98556.88;4937964;29;20047;-74
2023/06/14 08:58:04;;;;;;;6.28;2.00;;;;;;;33.46;28.23;98555.31;4938200;29;20038;-73
2023/06/14 09:00:30;;;;;;;6.37;2.00;;;;;;;33.45;28.59;98556.38;4936908;29;20094;-73
2023/06/14 09:02:58;;;;;;;3.15;2.10;;;;;;;33.24;28.55;98557.47;4954004;28;20035;-74
2023/06/14 09:05:27;;;;;;;7.53;2.38;;;;;;;33.10;28.45;98563.38;4937910;29;20029;-73
2023/06/14 09:07:56;;;;;;;10.93;2.30;;;;;;;33.27;28.42;98562.34;4953694;29;20034;-72
2023/06/14 09:10:21;;;;;;;6.45;2.00;;;;;;;33.24;28.61;98571.81;4953443;29;20031;-72
2023/06/14 09:12:47;;;;;;;8.02;2.40;;;;;;;33.22;28.95;98567.75;4937264;29;20134;-73
2023/06/14 09:15:14;;;;;;;5.38;2.38;;;;;;;33.09;28.83;98563.66;4937716;29;20086;-74
2023/06/14 09:17:39;;;;;;;5.47;1.80;;;;;;;33.19;28.41;98571.78;4937727;29;20043;-75
2023/06/14 09:20:06;;;;;;;7.25;1.83;;;;;;;33.06;28.59;98567.69;4953364;28;20023;-72
2023/06/14 09:22:32;;;;;;;5.60;1.98;;;;;;;33.15;28.40;98568.00;4953178;29;20027;-73
2023/06/14 09:24:58;;;;;;;3.83;1.77;;;;;;;33.43;28.01;98566.69;4953546;28;20050;-72
2023/06/14 09:27:26;;;;;;;4.68;1.70;;;;;;;33.27;27.82;98557.75;4954334;28;20028;-72
2023/06/14 09:29:51;;;;;;;6.07;1.73;;;;;;;33.19;27.94;98563.69;4953305;28;20070;-76
2023/06/14 09:32:17;;;;;;;6.45;1.90;;;;;;;33.23;28.18;98572.88;4954684;28;20097;-72
2023/06/14 09:34:42;;;;;;;4.50;1.90;;;;;;;33.11;28.34;98575.81;4954261;28;20471;-71
2023/06/14 09:37:08;;;;;;;5.15;1.85;;;;;;;33.23;28.18;98564.78;4937176;29;20023;-73
2023/06/14 09:39:33;;;;;;;2.50;1.48;;;;;;;33.28;28.15;98563.97;4953032;29;20399;-71
2023/06/14 09:41:59;;;;;;;3.67;1.63;;;;;;;33.16;28.37;98567.72;4937324;29;20471;-73
2023/06/14 09:44:28;;;;;;;4.35;1.40;;;;;;;33.15;28.40;98568.00;4953148;28;20047;-74
2023/06/14 09:46:53;;;;;;;6.70;1.63;;;;;;;33.15;28.50;98563.38;4936915;29;20434;-73
2023/06/14 09:49:19;;;;;;;3.25;1.40;;;;;;;33.14;28.59;98567.16;4952760;29;20027;-72
2023/06/14 09:51:45;;;;;;;7.55;1.90;;;;;;;33.20;29.16;98553.69;4937446;29;20462;-72
2023/06/14 09:54:14;;;;;;;4.28;1.70;;;;;;;33.22;29.24;98556.94;4952762;28;20057;-74
2023/06/14 09:56:49;;;;;;;4.03;1.60;;;;;;;33.07;28.75;98557.72;4937292;29;20041;-72
2023/06/14 09:59:16;;;;;;;4.05;1.70;;;;;;;32.82;28.95;98560.09;4936992;29;20035;-72
2023/06/14 10:01:42;;;;;;;5.60;1.65;;;;;;;32.70;29.08;98556.03;4921188;29;20035;-73
2023/06/14 10:04:08;;;;;;;2.20;1.50;;;;;;;32.58;28.64;98542.72;4936931;29;20629;-74
2023/06/14 10:06:37;;;;;;;6.43;1.55;;;;;;;32.49;28.86;98547.03;4936975;29;20031;-72
2023/06/14 10:09:03;;;;;;;4.32;1.50;;;;;;;32.36;29.23;98542.94;4953967;28;20059;-72
2023/06/14 10:11:29;;;;;;;4.05;1.55;;;;;;;32.26;29.15;98547.22;4955136;28;20407;-73
2023/06/14 10:13:58;;;;;;;7.43;1.58;;;;;;;32.14;29.38;98549.31;4957873;28;20034;-73
2023/06/14 10:16:27;;;;;;;9.65;1.70;;;;;;;32.00;29.58;98546.25;4940765;29;20425;-72
2023/06/14 10:19:11;;;;;;;4.25;1.67;;;;;;;31.94;29.88;98544.59;4940976;29;20027;-72
2023/06/14 10:22:04;;;;;;;3.65;1.60;;;;;;;31.89;30.07;98550.75;4956632;29;20053;-72
2023/06/14 10:24:34;;;;;;;5.80;1.80;;;;;;;31.81;30.39;98550.47;4957672;28;20414;-72
2023/06/14 10:27:00;;;;;;;7.53;1.80;;;;;;;31.78;30.89;98546.38;4956678;29;20024;-72
2023/06/14 10:29:32;;;;;;;2.47;1.40;;;;;;;31.77;30.52;98542.06;4956414;29;20121;-72
2023/06/14 10:31:59;;;;;;;10.43;1.85;;;;;;;31.78;30.15;98537.47;4941580;29;20035;-73
2023/06/14 10:34:26;;;;;;;3.13;1.77;;;;;;;31.84;30.20;98537.25;4924750;29;20047;-72
2023/06/14 10:37:08;;;;;;;4.20;1.77;;;;;;;31.93;30.47;98541.09;4940534;29;20031;-72
2023/06/14 10:39:40;;;;;;;2.13;1.40;;;;;;;32.14;30.44;98532.31;4940198;29;20035;-72
2023/06/14 10:42:06;;;;;;;3.40;1.50;;;;;;;32.28;30.24;98536.16;4956587;29;20102;-72
2023/06/14 10:44:50;;;;;;;3.35;1.50;;;;;;;32.23;30.11;98528.84;4957885;28;20468;-72
2023/06/14 10:47:26;;;;;;;4.63;1.80;;;;;;;32.18;29.60;98523.41;4956385;29;20039;-73
2023/06/14 10:49:58;;;;;;;5.90;1.80;;;;;;;32.20;29.52;98526.66;4956400;28;20043;-73
2023/06/14 10:52:27;;;;;;;7.97;1.60;;;;;;;32.08;29.77;98529.56;4956037;28;20073;-72
2023/06/14 10:55:06;;;;;;;3.03;1.80;;;;;;;32.07;29.79;98527.94;4939718;29;20072;-72
2023/06/14 10:57:52;;;;;;;3.75;1.70;;;;;;;32.13;30.03;98531.47;4956276;28;20042;-72
2023/06/14 11:00:25;;;;;;;6.63;1.80;;;;;;;32.21;29.93;98531.00;4955790;28;20031;-73
2023/06/14 11:03:18;;;;;;;3.25;1.73;;;;;;;32.30;29.74;98528.59;4940607;29;20090;-73
2023/06/14 11:05:53;;;;;;;3.58;1.90;;;;;;;32.19;29.39;98519.63;4957203;28;20031;-74
2023/06/14 11:08:58;;;;;;;4.68;2.00;;;;;;;32.24;29.26;98532.34;4956861;28;20035;-73
2023/06/14 11:11:23;;;;;;;3.03;1.90;;;;;;;32.15;28.95;98523.94;4951635;29;20035;-74
2023/06/14 11:13:49;;;;;;;4.05;1.58;;;;;;;32.16;29.34;98522.84;4939623;29;20027;-74
2023/06/14 11:16:15;;;;;;;12.13;1.83;;;;;;;32.15;28.95;98518.53;4956816;28;20046;-73
2023/06/14 11:18:41;;;;;;;4.88;1.98;;;;;;;32.13;29.45;98517.97;4955548;29;20078;-73
2023/06/14 11:21:08;;;;;;;4.00;1.63;;;;;;;32.05;29.48;98518.47;4955984;29;20027;-75
2023/06/14 11:23:34;;;;;;;6.13;1.88;;;;;;;31.97;29.54;98517.06;4954776;28;20451;-71
2023/06/14 11:25:59;;;;;;;2.50;1.48;;;;;;;31.88;32.98;98518.63;4956722;28;20035;-80
2023/06/14 11:28:35;;;;;;;3.22;1.60;;;;;;;31.78;34.79;98519.41;4956834;28;20055;-84
2023/06/14 11:31:01;;;;;;;7.20;1.80;;;;;;;31.71;34.52;98508.03;4940935;29;20042;-83